AirNav   Everest Fuels
 
 1247 users online  

PS13 Boeing Helicopters Center 3 South Heliport
Ridley Park, Pennsylvania, USA

GOING TO RIDLEY PARK?


FAA INFORMATION EFFECTIVE 07 NOVEMBER 2019

Location

FAA Identifier: PS13
Lat/Long: 39-51-33.4050N 075-19-10.6760W
39-51.556750N 075-19.177933W
39.8592792,-75.3196322
(estimated)
Elevation: 10 ft. / 3.0 m (surveyed)
Variation: 11W (1985)
Time zone: UTC -5 (UTC -4 during Daylight Saving Time)
Zip code: 19078

Heliport Operations

Heliport use: Private use. Permission required prior to landing
Activation date: 12/1974
Control tower: no
ARTCC: NEW YORK CENTER
FSS: WILLIAMSPORT FLIGHT SERVICE STATION
Attendance: DAYLIGHT HOURS
Wind indicator: yes
Segmented circle: yes

Heliport Communications

WX ASOS at PHL (4 nm E): PHONE 215-492-9617
WX AWOS-3T at OQN (14 nm NW): 121.4 ((610) 692-6190)
WX AWOS-3 at LOM (17 nm N): 118.925 (215-646-1068)
WX ASOS at ILG (17 nm SW): PHONE 302-328-1536
WX ASOS at PNE (20 nm NE): PHONE 215-677-0146

Nearby radio navigation aids

VOR radial/distance  VOR name  Freq  Var
OODr007/13.4WOODSTOWN VORTAC112.8010W
MXEr111/16.5MODENA VORTAC113.2009W
DQOr061/17.1DUPONT VORTAC114.0010W
PTWr162/24.4POTTSTOWN VORTAC116.5009W
VCNr330/25.2CEDAR LAKE VOR/DME115.2010W
ARDr229/30.3YARDLEY VOR/DME108.2010W
GXUr267/34.5MC GUIRE VORTAC110.6012W
ENOr023/38.7SMYRNA VORTAC111.4009W

 
NDB name  Hdg/Dist  Freq  Var  ID
AMBLER198/16.127512WING .. -. --.
RAINBOW353/27.836311WRNB .-. -. -...

Heliport Services

Airframe service: NONE
Powerplant service: NONE

Runway Information

Helipad H1

Dimensions: 100 x 100 ft. / 30 x 30 m
Surface: asphalt
Traffic pattern: leftleft
Obstructions: tower, lighted, 400 ft. from runway

Helipad H2

Dimensions: 100 x 100 ft. / 30 x 30 m
Surface: asphalt
Traffic pattern: leftleft
Obstructions: tower, lighted, 400 ft. from runway

Heliport Ownership and Management from official FAA records

Ownership: Privately-owned
Manager: BRYAN SPADT
PO BOX 16858
PHILADELPHIA, PA 19142
Phone 610-591-5635

Heliport Operational Statistics

Aircraft based on the field: 1
Helicopters: 1
    

Additional Remarks

FOR CD CTC PHILADELPHIA APCH AT 800-354-9884.

Instrument Procedures

There are no published instrument procedures at PS13.

Some nearby airports with instrument procedures:

KPHL - Philadelphia International Airport (4 nm E)
7N7 - Spitfire Aerodrome (8 nm SW)
KOQN - Brandywine Regional Airport (14 nm NW)
17N - Cross Keys Airport (16 nm SE)
KLOM - Wings Field Airport (17 nm N)
KILG - New Castle Airport (17 nm SW)
19N - Camden County Airport (18 nm E)
KPNE - Northeast Philadelphia Airport (20 nm NE)
 
Loc | Ops | Rwys | IFR | FBO | Links
Com | Nav | Svcs | Stats | Notes
Area around PS13 (Boeing Helicopters Center 3 South Heliport)
 
Road maps at: MapQuest Bing Google
 
Aerial photo
No photo
 
Sectional chart

 
Airport distance calculator
Flying to Boeing Helicopters Center 3 South Heliport? Find the distance to fly.

From to PS13

Sunrise and sunset
Times for 15-Nov-2019
 Local
(UTC-5)
 Zulu
(UTC)
Morning civil twilight06:1811:18
Sunrise06:4711:47
Sunset16:4521:45
Evening civil twilight17:1422:14

Current date and time
Zulu (UTC)  15-Nov-2019 20:20:27
Local (UTC-5)  15-Nov-2019 15:20:27
 
METAR
KPHL 
4nm E 
151954Z 28008KT 10SM BKN250 11/M06 A3018 RMK AO2 SLP218 T01061061
KOQN 
14nm NW 
151955Z AUTO 27006KT 10SM 09/M04 A3016 RMK AO2
KLOM 
17nm N 
151955Z AUTO 27005KT 10SM CLR 10/M05 A3016 RMK AO2 T00971051
KILG 
17nm SW 
151951Z 31008KT 10SM CLR 11/M06 A3018 RMK AO2 SLP218 T01111061 $
KPNE 
19nm NE 
151954Z 31008KT 10SM CLR 12/M06 A3017 RMK AO2 SLP218 T01171056
TAF
KPHL 
4nm E 
151739Z 1518/1624 25008KT P6SM SCT250 FM152200 29006KT P6SM SCT250 FM160200 32006KT P6SM SCT250 FM160500 36008KT P6SM FEW250 FM160900 02012G16KT P6SM FEW250 FM161500 04015G24KT P6SM FEW250
KILG 
17nm SW 
151739Z 1518/1618 30005KT P6SM FEW250 FM160100 33007KT P6SM SCT250 FM160500 01010G18KT P6SM FEW250 FM161100 02013G21KT P6SM FEW250 FM161400 03016G24KT P6SM FEW250
KPNE 
19nm NE 
151739Z 1518/1618 30012KT P6SM SCT250 FM152200 29008KT P6SM SCT250 FM160200 33005KT P6SM SCT250 FM160500 36008KT P6SM FEW250 FM161000 02012KT P6SM FEW250 FM161400 04015KT P6SM FEW250
NOTAMs
Click for the latest NOTAMs
NOTAMs are issued by the DoD/FAA and will open in a separate window not controlled by AirNav.

 

 
 

Would you like to see your business listed on this page?

 If your business provides an interesting product or service to pilots, flight crews, aircraft, or users of the Boeing Helicopters Center 3 South Heliport, you should consider listing it here.  To start the listing process, click on the button below
 
Add a business
 

Other Pages about Boeing Helicopters Center 3 South Heliport

Update a link
 
Copyright © AirNav, LLC. All rights reserved. Privacy Policy  Contact